Terminal Aerodrome Forecast
Issued by NWS

Current Version | Previous Version | Text Only | Print | Product List | Glossary On
Versions: 1 2 3 4 5 6 7 8 9 10 11 12 13 14 15 16
000
FTUS45 KFGZ 250059 AAA
TAFGCN
TAF AMD
KGCN 250059Z 2501/2524 31010KT P6SM SCT070 BKN120
     FM250200 VRB06KT P6SM FEW070 SCT110
      TEMPO 2519/2523 VRB10G20KT P6SM -TSRA BKN040CB=

USA.gov is the U.S. government's official web portal to all federal, state and local government web resources and services.